Terminal Aerodrome Forecast
Issued by NWS

Home | Current Version | Previous Version | Text Only | Print | Product List | Glossary On
Versions: 1 2 3 4 5 6 7 8 9 10 11 12 13 14
000
FTUS45 KGGW 111133
TAFGDV
TAF
KGDV 111133Z 1112/1212 30010KT P6SM SCT015
     FM111500 26006KT P6SM SCT060
     FM111700 25006KT P6SM BKN060
     FM120200 32004KT P6SM BKN020
     FM120600 35005KT P6SM VCSH OVC015
     FM120900 34007KT 4SM -SN OVC015=

USA.gov is the U.S. government's official web portal to all federal, state and local government web resources and services.